Time;durP1;ratioP1;P1;durP2;ratioP2;P2;SDS_P1;SDS_P2;PMS_P1;PMS_P2;Temp;Humidity;BMP_temperature;BMP_pressure;BME280_temperature;BME280_humidity;BME280_pressure;Samples;Min_cycle;Max_cycle;Signal;HPM_P1;HPM_P2
2023/01/19 00:01:50;;;;;;;90.70;41.00;;;;;;;1.98;95.38;98907.34;106707;1273;22734;-58
2023/01/19 00:04:21;;;;;;;89.90;41.90;;;;;;;1.98;95.49;98912.20;106688;1269;24394;-57
2023/01/19 00:06:52;;;;;;;94.00;39.80;;;;;;;1.99;95.61;98919.80;106649;1276;22965;-57
2023/01/19 00:09:22;;;;;;;89.10;40.50;;;;;;;2.01;95.59;98920.29;106616;1262;25718;-57
2023/01/19 00:11:53;;;;;;;74.90;33.50;;;;;;;2.00;95.63;98922.43;106522;1258;22636;-58
2023/01/19 00:14:24;;;;;;;83.30;35.10;;;;;;;1.99;95.62;98930.88;106591;1268;22661;-58
2023/01/19 00:16:55;;;;;;;80.80;33.60;;;;;;;2.01;95.68;98934.27;106523;1265;22776;-58
2023/01/19 00:19:26;;;;;;;81.90;34.10;;;;;;;2.02;95.79;98934.23;106517;1269;23023;-59
2023/01/19 00:21:57;;;;;;;81.50;37.20;;;;;;;2.02;95.90;98941.48;106627;1276;24265;-58
2023/01/19 00:24:28;;;;;;;82.60;36.00;;;;;;;2.00;95.88;98945.80;106587;1276;22522;-59
2023/01/19 00:27:02;;;;;;;86.00;39.00;;;;;;;2.00;95.91;98944.45;106558;1268;25357;-59
2023/01/19 00:29:33;;;;;;;80.50;35.20;;;;;;;2.02;95.94;98943.11;106624;1270;24289;-56
2023/01/19 00:32:05;;;;;;;81.50;36.70;;;;;;;2.05;95.98;98948.98;106578;1276;24203;-57
2023/01/19 00:34:38;;;;;;;79.40;35.90;;;;;;;2.07;95.87;98952.06;106604;1276;25476;-60
2023/01/19 00:37:10;;;;;;;81.60;36.00;;;;;;;2.08;95.94;98951.98;106753;1272;22908;-58
2023/01/19 00:39:40;;;;;;;75.40;33.40;;;;;;;2.10;95.84;98952.80;106714;1276;22525;-58
2023/01/19 00:45:01;;;;;;;85.40;35.80;;;;;;;2.11;95.92;98957.09;106592;1276;24272;-58
2023/01/19 00:47:32;;;;;;;70.20;32.40;;;;;;;2.10;95.82;98955.93;106552;1276;22533;-56
2023/01/19 00:50:03;;;;;;;74.70;32.80;;;;;;;2.09;95.69;98962.19;106510;1275;22537;-55
2023/01/19 00:52:34;;;;;;;70.60;30.20;;;;;;;2.06;95.71;98968.37;106528;1269;24234;-56
2023/01/19 00:55:06;;;;;;;72.60;30.70;;;;;;;2.05;95.71;98973.58;106544;1270;24253;-58
2023/01/19 00:57:38;;;;;;;72.10;31.20;;;;;;;2.05;95.75;98978.39;106575;1276;25443;-57
2023/01/19 01:00:12;;;;;;;71.90;31.60;;;;;;;2.06;95.85;98981.64;106669;1276;22577;-56
2023/01/19 01:02:44;;;;;;;66.30;27.10;;;;;;;2.10;95.91;98990.61;106621;1269;22527;-58
2023/01/19 01:05:15;;;;;;;68.50;29.40;;;;;;;2.13;95.99;98997.57;106525;1276;22529;-58
2023/01/19 01:07:48;;;;;;;74.70;29.60;;;;;;;2.15;95.92;99000.98;106596;1275;22484;-60
2023/01/19 01:10:21;;;;;;;73.80;32.20;;;;;;;2.16;95.94;99007.15;106619;1275;22689;-59
2023/01/19 01:12:52;;;;;;;77.10;34.80;;;;;;;2.14;95.97;99005.63;106568;1276;23119;-57
2023/01/19 01:15:25;;;;;;;86.50;35.30;;;;;;;2.14;95.89;99005.01;106612;1276;24231;-58
2023/01/19 01:17:56;;;;;;;80.10;35.70;;;;;;;2.13;95.94;99003.38;106580;1261;23199;-59
2023/01/19 01:20:29;;;;;;;86.00;37.20;;;;;;;2.14;95.92;99008.16;106539;1276;22533;-59
2023/01/19 01:23:00;;;;;;;84.60;36.30;;;;;;;2.13;95.85;99004.04;106660;1262;24243;-56
2023/01/19 01:25:36;;;;;;;76.30;33.30;;;;;;;2.14;95.95;99002.75;106567;1260;22645;-59
2023/01/19 01:28:07;;;;;;;84.90;37.00;;;;;;;2.15;95.94;98999.33;106634;1276;25518;-58
2023/01/19 01:30:39;;;;;;;90.40;38.10;;;;;;;2.17;95.94;99000.59;106587;1276;25355;-58
2023/01/19 01:33:12;;;;;;;79.70;35.90;;;;;;;2.17;95.89;99003.64;106551;1262;24269;-59
2023/01/19 01:35:42;;;;;;;89.90;37.50;;;;;;;2.14;95.75;99009.05;106654;1269;24660;-59
2023/01/19 01:38:13;;;;;;;87.20;38.20;;;;;;;2.12;95.82;99011.45;106557;1276;24777;-57
2023/01/19 01:40:44;;;;;;;86.30;37.20;;;;;;;2.13;95.92;99020.33;106564;1269;25298;-57
2023/01/19 01:43:17;;;;;;;84.30;35.90;;;;;;;2.12;95.81;99022.56;106554;1275;22605;-58
2023/01/19 01:45:49;;;;;;;81.10;36.10;;;;;;;2.11;95.79;99025.13;106545;1276;25606;-59
2023/01/19 01:48:24;;;;;;;75.20;33.40;;;;;;;2.11;95.86;99026.54;106576;1276;22630;-58
2023/01/19 01:54:11;;;;;;;66.80;27.70;;;;;;;2.03;95.54;99027.16;106039;1277;22586;-57
2023/01/19 01:56:45;;;;;;;50.10;20.40;;;;;;;1.94;95.08;99028.59;106280;1270;24234;-58
2023/01/19 01:59:24;;;;;;;48.30;19.50;;;;;;;1.89;94.95;99027.84;106200;1283;24046;-58
2023/01/19 02:04:46;;;;;;;;;;;;;;;1.78;94.69;99027.14;106069;1276;22512;-57
2023/01/19 02:13:17;;;;;;;22.00;8.60;;;;;;;1.63;94.36;99024.55;105928;1283;23465;-57
2023/01/19 02:15:49;;;;;;;22.50;7.20;;;;;;;1.57;94.14;99023.44;106029;1277;22666;-57
2023/01/19 02:18:21;;;;;;;22.40;8.50;;;;;;;1.52;94.12;99028.33;106045;1275;22569;-58
2023/01/19 02:21:04;;;;;;;24.10;8.00;;;;;;;1.48;94.22;99029.02;106036;1280;22575;-58
2023/01/19 02:23:47;;;;;;;19.80;7.70;;;;;;;1.43;94.25;99030.05;106096;1283;25561;-58
2023/01/19 02:26:21;;;;;;;17.80;6.80;;;;;;;1.40;94.18;99035.43;106461;1257;25352;-58
2023/01/19 02:28:56;;;;;;;19.20;6.10;;;;;;;1.35;94.09;99037.09;106728;1276;25363;-56
2023/01/19 02:31:29;;;;;;;16.90;5.90;;;;;;;1.32;94.04;99040.17;106613;1269;24193;-58
2023/01/19 02:34:02;;;;;;;15.10;5.40;;;;;;;1.30;94.14;99040.80;106568;1275;22531;-57
2023/01/19 02:36:39;;;;;;;15.40;4.90;;;;;;;1.28;93.79;99037.98;106702;1263;22540;-58
2023/01/19 02:39:11;;;;;;;16.40;5.40;;;;;;;1.25;93.77;99033.68;106702;1265;24462;-60
2023/01/19 02:41:46;;;;;;;14.50;4.60;;;;;;;1.23;93.71;99032.89;106858;1274;25365;-55
2023/01/19 02:44:20;;;;;;;15.90;4.60;;;;;;;1.20;93.75;99036.44;106570;1258;23157;-58
2023/01/19 02:46:53;;;;;;;14.60;4.60;;;;;;;1.17;93.89;99039.13;106528;1276;24357;-55
2023/01/19 02:49:23;;;;;;;14.10;3.90;;;;;;;1.15;93.85;99038.27;106552;1275;22554;-58
2023/01/19 02:51:54;;;;;;;13.80;4.40;;;;;;;1.12;93.80;99037.51;106582;1276;22584;-58
2023/01/19 02:54:46;;;;;;;10.70;3.00;;;;;;;1.10;93.67;99033.89;106493;1276;22549;-58
2023/01/19 02:57:43;;;;;;;9.10;2.60;;;;;;;1.06;93.49;99036.28;106535;1276;22691;-56
2023/01/19 03:00:27;;;;;;;11.20;3.20;;;;;;;1.04;93.47;99034.54;106679;1261;23016;-59
2023/01/19 03:03:15;;;;;;;11.90;3.30;;;;;;;1.02;93.54;99028.42;106523;1276;24271;-58
2023/01/19 03:05:58;;;;;;;11.10;2.90;;;;;;;1.01;93.51;99034.34;106502;1262;24196;-60
2023/01/19 03:08:38;;;;;;;13.10;3.60;;;;;;;1.00;93.53;99038.39;106641;1276;22531;-59
2023/01/19 03:11:08;;;;;;;;;;;;;;;1.00;93.58;99039.64;106545;1263;23246;-56
2023/01/19 03:13:47;;;;;;;11.10;3.00;;;;;;;0.99;93.38;99044.16;106562;1276;22518;-59
2023/01/19 03:16:25;;;;;;;13.30;3.60;;;;;;;0.99;93.39;99044.64;106553;1263;22581;-55
2023/01/19 03:19:02;;;;;;;11.60;3.00;;;;;;;0.99;93.41;99047.54;106550;1276;22540;-56
2023/01/19 03:21:36;;;;;;;10.30;2.90;;;;;;;0.98;93.44;99049.36;106558;1276;24391;-55
2023/01/19 03:24:12;;;;;;;11.30;2.70;;;;;;;0.97;93.24;99047.42;106638;1276;24256;-58
2023/01/19 03:26:47;;;;;;;8.20;2.40;;;;;;;0.96;93.18;99046.23;106634;1276;24344;-57
2023/01/19 03:29:20;;;;;;;10.30;2.50;;;;;;;0.95;93.07;99047.74;106511;1275;23142;-56
2023/01/19 03:31:54;;;;;;;8.40;2.40;;;;;;;0.94;93.12;99043.85;106587;1253;25662;-59
2023/01/19 03:34:25;;;;;;;8.00;2.20;;;;;;;0.94;93.01;99044.80;106618;1260;22567;-59
2023/01/19 03:37:01;;;;;;;10.00;3.50;;;;;;;0.93;93.01;99046.73;106596;1276;22608;-57
2023/01/19 03:39:34;;;;;;;9.80;2.50;;;;;;;0.93;92.93;99047.11;106709;1275;24267;-59
2023/01/19 03:42:08;;;;;;;9.60;2.40;;;;;;;0.92;92.99;99043.06;106599;1275;24391;-58
2023/01/19 03:44:42;;;;;;;10.10;3.20;;;;;;;0.91;92.99;99042.70;106339;1274;227036;-58
2023/01/19 03:47:14;;;;;;;10.20;3.50;;;;;;;0.90;93.01;99039.66;106594;1271;22874;-59
2023/01/19 03:49:47;;;;;;;12.80;3.10;;;;;;;0.91;93.09;99045.45;106543;1276;24245;-57
2023/01/19 03:52:26;;;;;;;10.30;2.50;;;;;;;0.91;93.04;99045.69;106651;1272;25600;-57
2023/01/19 03:54:57;;;;;;;11.70;3.10;;;;;;;0.91;93.16;99041.98;106631;1276;25511;-58
2023/01/19 03:57:28;;;;;;;10.60;3.20;;;;;;;0.91;93.23;99041.66;106717;1268;25257;-56
2023/01/19 03:59:59;;;;;;;14.00;3.80;;;;;;;0.92;93.29;99040.92;106427;1270;24266;-58
2023/01/19 04:02:29;;;;;;;12.80;3.90;;;;;;;0.93;93.30;99047.81;106453;1262;22668;-58
2023/01/19 04:05:00;;;;;;;13.80;3.80;;;;;;;0.92;93.32;99045.64;106516;1264;24377;-58
2023/01/19 04:07:31;;;;;;;16.40;3.80;;;;;;;0.92;93.35;99052.48;106485;1261;22533;-58
2023/01/19 04:10:02;;;;;;;15.10;4.60;;;;;;;0.91;93.56;99055.94;106556;1276;24346;-59
2023/01/19 04:12:33;;;;;;;20.30;6.20;;;;;;;0.90;93.68;99058.80;106497;1276;22531;-58
2023/01/19 04:15:04;;;;;;;16.10;4.80;;;;;;;0.90;93.88;99060.77;106517;1273;22535;-57
2023/01/19 04:17:35;;;;;;;18.10;5.60;;;;;;;0.89;94.04;99066.94;106608;1270;24238;-58
2023/01/19 04:20:08;;;;;;;18.30;6.40;;;;;;;0.89;94.22;99069.45;106510;1274;26557;-58
2023/01/19 04:22:39;;;;;;;18.70;6.70;;;;;;;0.88;94.37;99067.83;106539;1269;25451;-57
2023/01/19 04:25:12;;;;;;;18.50;5.10;;;;;;;0.87;94.55;99067.87;106426;1276;22532;-57
2023/01/19 04:27:42;;;;;;;21.30;7.30;;;;;;;0.86;94.70;99074.17;106569;1276;25374;-57
2023/01/19 04:30:15;;;;;;;21.30;7.60;;;;;;;0.86;94.83;99082.66;106540;1275;24241;-58
2023/01/19 04:32:46;;;;;;;21.80;8.30;;;;;;;0.86;94.93;99089.04;106646;1276;22533;-58
2023/01/19 04:35:18;;;;;;;23.50;8.40;;;;;;;0.84;95.00;99091.75;106495;1276;24253;-55
2023/01/19 04:37:49;;;;;;;23.10;7.50;;;;;;;0.83;95.01;99098.11;106588;1273;24390;-58
2023/01/19 04:40:20;;;;;;;22.70;8.20;;;;;;;0.84;95.09;99100.38;106572;1271;24272;-59
2023/01/19 04:42:50;;;;;;;23.60;8.30;;;;;;;0.84;95.16;99102.73;106499;1268;22639;-59
2023/01/19 04:45:21;;;;;;;21.90;8.30;;;;;;;0.85;95.14;99108.60;106524;1271;22623;-61
2023/01/19 04:47:53;;;;;;;24.50;8.90;;;;;;;0.86;95.34;99110.52;106433;1266;25411;-58
2023/01/19 04:50:24;;;;;;;28.10;9.80;;;;;;;0.89;95.37;99127.23;106431;1276;23376;-58
2023/01/19 04:52:55;;;;;;;26.20;9.20;;;;;;;0.90;95.42;99137.80;106465;1276;22728;-59
2023/01/19 04:55:26;;;;;;;26.40;11.00;;;;;;;0.90;95.46;99139.67;106503;1270;24271;-59
2023/01/19 04:57:57;;;;;;;28.90;11.40;;;;;;;0.90;95.53;99141.33;106523;1276;24271;-58
2023/01/19 05:00:28;;;;;;;26.90;10.20;;;;;;;0.92;95.58;99148.02;106501;1276;22641;-57
2023/01/19 05:02:59;;;;;;;29.60;10.20;;;;;;;0.93;95.63;99152.78;106560;1276;22542;-58
2023/01/19 05:05:31;;;;;;;29.30;12.60;;;;;;;0.93;95.64;99144.45;106510;1275;25416;-58
2023/01/19 05:08:02;;;;;;;28.50;9.80;;;;;;;0.94;95.78;99147.57;106507;1268;22538;-59
2023/01/19 05:10:33;;;;;;;26.50;10.30;;;;;;;0.94;95.80;99151.66;106389;1276;22549;-59
2023/01/19 05:13:04;;;;;;;30.40;12.10;;;;;;;0.93;95.85;99158.10;106471;1276;25347;-66
2023/01/19 05:15:35;;;;;;;27.30;10.60;;;;;;;0.95;95.83;99165.36;106481;1276;24291;-58
2023/01/19 05:18:06;;;;;;;28.80;10.30;;;;;;;0.96;95.96;99167.14;106421;1269;22518;-67
2023/01/19 05:20:38;;;;;;;27.60;10.60;;;;;;;0.96;95.91;99163.35;106385;1254;24322;-60
2023/01/19 05:23:09;;;;;;;30.20;11.00;;;;;;;0.95;96.11;99162.27;106550;1276;24255;-59
2023/01/19 05:25:40;;;;;;;31.30;11.50;;;;;;;0.94;96.04;99162.33;106487;1276;24398;-59
2023/01/19 05:28:11;;;;;;;24.70;9.00;;;;;;;0.93;96.13;99159.05;106782;1260;24266;-58
2023/01/19 05:30:42;;;;;;;27.40;10.30;;;;;;;0.93;96.18;99158.67;106579;1276;24282;-56
2023/01/19 05:33:13;;;;;;;25.40;9.30;;;;;;;0.93;96.21;99161.27;106559;1276;22624;-59
2023/01/19 05:35:44;;;;;;;28.90;9.80;;;;;;;0.92;96.29;99163.56;106489;1276;24375;-58
2023/01/19 05:38:14;;;;;;;28.50;9.80;;;;;;;0.91;96.32;99163.04;106448;1270;24260;-58
2023/01/19 05:40:46;;;;;;;26.70;9.80;;;;;;;0.90;96.26;99164.55;106396;1275;22545;-56
2023/01/19 05:43:17;;;;;;;23.80;8.90;;;;;;;0.90;96.42;99171.77;106747;1275;22526;-58
2023/01/19 05:45:48;;;;;;;23.00;7.90;;;;;;;0.90;96.46;99175.85;106444;1276;22533;-59
2023/01/19 05:48:19;;;;;;;24.10;8.00;;;;;;;0.89;96.55;99177.45;106407;1272;24696;-59
2023/01/19 05:50:50;;;;;;;21.90;8.00;;;;;;;0.89;96.61;99173.70;106592;1274;23028;-59
2023/01/19 05:53:21;;;;;;;24.20;9.20;;;;;;;0.88;96.90;99174.52;106568;1275;24239;-59
2023/01/19 05:55:52;;;;;;;24.70;9.10;;;;;;;0.87;96.77;99180.36;106507;1270;24320;-63
2023/01/19 05:58:23;;;;;;;22.80;8.30;;;;;;;0.87;96.74;99191.27;106458;1272;24265;-59
2023/01/19 06:00:53;;;;;;;24.30;9.20;;;;;;;0.87;96.82;99192.66;106770;1276;22523;-59
2023/01/19 06:03:24;;;;;;;28.50;10.30;;;;;;;0.88;96.71;99197.67;106453;1270;22541;-59
2023/01/19 06:05:58;;;;;;;26.00;8.90;;;;;;;0.89;96.80;99205.52;106484;1276;23013;-59
2023/01/19 06:08:29;;;;;;;24.50;8.60;;;;;;;0.89;96.85;99211.44;106676;1261;22521;-59
2023/01/19 06:11:00;;;;;;;25.40;8.90;;;;;;;0.90;96.78;99220.31;106530;1270;26115;-57
2023/01/19 06:13:31;;;;;;;23.80;9.90;;;;;;;0.92;96.84;99223.87;106535;1276;22523;-56
2023/01/19 06:16:03;;;;;;;23.30;8.40;;;;;;;0.93;96.81;99227.91;106453;1276;24279;-58
2023/01/19 06:18:34;;;;;;;21.20;7.60;;;;;;;0.93;96.88;99225.72;106630;1273;22700;-57
2023/01/19 06:21:11;;;;;;;19.10;6.00;;;;;;;0.92;96.89;99226.77;106391;1276;24262;-58
2023/01/19 06:23:42;;;;;;;17.90;6.40;;;;;;;0.89;96.89;99231.16;106928;1269;22553;-58
2023/01/19 06:26:12;;;;;;;20.30;6.70;;;;;;;0.88;96.87;99236.85;106478;1275;22546;-58
2023/01/19 06:28:43;;;;;;;19.70;6.70;;;;;;;0.88;96.92;99241.95;106484;1270;24987;-60
2023/01/19 06:31:14;;;;;;;20.90;7.70;;;;;;;0.87;97.08;99247.25;106572;1275;24212;-58
2023/01/19 06:33:45;;;;;;;20.90;7.70;;;;;;;0.85;97.13;99248.39;106470;1275;22533;-58
2023/01/19 06:36:16;;;;;;;17.40;5.60;;;;;;;0.83;97.13;99253.38;106531;1276;24391;-58
2023/01/19 06:38:47;;;;;;;15.70;4.40;;;;;;;0.83;97.29;99261.42;106547;1261;22744;-58
2023/01/19 06:41:17;;;;;;;18.70;5.60;;;;;;;0.81;97.20;99268.05;106669;1276;25509;-59
2023/01/19 06:43:48;;;;;;;15.60;5.50;;;;;;;0.80;97.30;99267.61;106613;1276;24265;-60
2023/01/19 06:46:19;;;;;;;16.90;4.10;;;;;;;0.81;97.37;99274.11;106559;1275;24230;-60
2023/01/19 06:48:50;;;;;;;15.40;4.20;;;;;;;0.80;97.41;99276.34;106584;1276;25508;-59
2023/01/19 06:51:21;;;;;;;13.50;4.30;;;;;;;0.78;97.35;99272.23;106665;1260;26150;-61
2023/01/19 06:53:52;;;;;;;12.80;3.70;;;;;;;0.77;97.26;99269.58;106666;1275;22653;-60
2023/01/19 06:56:23;;;;;;;13.80;4.50;;;;;;;0.77;97.17;99271.30;106487;1276;22527;-59
2023/01/19 06:58:54;;;;;;;14.10;4.60;;;;;;;0.77;97.16;99274.90;106524;1275;24232;-59
2023/01/19 07:01:25;;;;;;;12.70;4.10;;;;;;;0.77;97.12;99275.15;106511;1276;25417;-59
2023/01/19 07:03:56;;;;;;;11.70;3.10;;;;;;;0.78;97.12;99281.55;106535;1276;22530;-59
2023/01/19 07:06:27;;;;;;;15.00;3.70;;;;;;;0.80;97.00;99280.10;106542;1276;24273;-59
2023/01/19 07:08:59;;;;;;;14.20;3.80;;;;;;;0.81;96.87;99274.80;106560;1261;25374;-57
2023/01/19 07:11:32;;;;;;;12.50;3.90;;;;;;;0.81;96.92;99272.52;106578;1274;22608;-59
2023/01/19 07:14:03;;;;;;;12.50;3.60;;;;;;;0.80;97.13;99271.40;106584;1274;22611;-59
2023/01/19 07:16:34;;;;;;;11.20;3.10;;;;;;;0.77;96.92;99272.15;106526;1276;22530;-59
2023/01/19 07:19:06;;;;;;;12.40;4.10;;;;;;;0.78;96.90;99273.34;106553;1260;24282;-59
2023/01/19 07:21:37;;;;;;;12.40;3.20;;;;;;;0.77;96.97;99274.59;106655;1276;22553;-59
2023/01/19 07:24:09;;;;;;;13.10;3.70;;;;;;;0.77;96.85;99273.27;106613;1270;26556;-59
2023/01/19 07:26:39;;;;;;;13.80;4.50;;;;;;;0.77;96.89;99270.27;106509;1273;24362;-59
2023/01/19 07:29:10;;;;;;;14.70;4.30;;;;;;;0.77;97.14;99270.84;106487;1275;23097;-59
2023/01/19 07:31:41;;;;;;;15.00;4.10;;;;;;;0.76;97.03;99272.81;106516;1276;24222;-58
2023/01/19 07:34:12;;;;;;;11.60;3.50;;;;;;;0.77;97.09;99276.80;106534;1260;24251;-62
2023/01/19 07:36:43;;;;;;;14.60;5.10;;;;;;;0.77;97.06;99281.05;106516;1276;22543;-60
2023/01/19 07:39:14;;;;;;;16.90;5.20;;;;;;;0.76;97.11;99281.00;106602;1261;26545;-58
2023/01/19 07:41:47;;;;;;;15.10;4.50;;;;;;;0.77;97.16;99278.39;106814;1275;22530;-59
2023/01/19 07:44:18;;;;;;;13.90;4.30;;;;;;;0.77;97.29;99278.48;106552;1273;22530;-58
2023/01/19 07:46:50;;;;;;;14.30;3.80;;;;;;;0.73;97.39;99280.83;106517;1273;23025;-58
2023/01/19 07:49:20;;;;;;;12.80;3.50;;;;;;;0.72;97.53;99277.80;106514;1270;22538;-58
2023/01/19 07:51:51;;;;;;;11.70;4.00;;;;;;;0.70;97.37;99279.84;106592;1276;22670;-58
2023/01/19 07:54:23;;;;;;;13.80;4.60;;;;;;;0.67;97.34;99279.91;106517;1276;24369;-59
2023/01/19 07:56:56;;;;;;;14.20;4.20;;;;;;;0.65;97.23;99275.81;106605;1276;22533;-57
2023/01/19 07:59:29;;;;;;;11.80;3.50;;;;;;;0.64;97.14;99277.73;106533;1275;24433;-60
2023/01/19 08:02:00;;;;;;;11.60;3.10;;;;;;;0.63;97.03;99280.89;106622;1276;24262;-59
2023/01/19 08:04:31;;;;;;;13.50;4.30;;;;;;;0.62;96.87;99282.16;106557;1270;22560;-59
2023/01/19 08:07:02;;;;;;;11.80;3.40;;;;;;;0.63;96.94;99291.09;106528;1276;25462;-59
2023/01/19 08:09:33;;;;;;;14.70;4.00;;;;;;;0.64;96.80;99293.20;106718;1272;24247;-59
2023/01/19 08:12:04;;;;;;;11.80;3.90;;;;;;;0.65;96.76;99293.71;106571;1269;22588;-58
2023/01/19 08:14:35;;;;;;;10.30;3.20;;;;;;;0.66;96.83;99299.88;106541;1273;22535;-59
2023/01/19 08:17:06;;;;;;;16.40;4.90;;;;;;;0.67;96.63;99298.58;106572;1269;22538;-59
2023/01/19 08:19:38;;;;;;;15.20;4.40;;;;;;;0.69;96.82;99297.74;106491;1270;25307;-57
2023/01/19 08:22:09;;;;;;;18.00;5.10;;;;;;;0.70;96.74;99303.52;106518;1270;22642;-59
2023/01/19 08:24:40;;;;;;;16.90;4.60;;;;;;;0.72;96.66;99315.11;106546;1276;25242;-59
2023/01/19 08:27:10;;;;;;;17.40;4.60;;;;;;;0.74;96.56;99314.17;106623;1270;22530;-59
2023/01/19 08:29:41;;;;;;;11.10;3.40;;;;;;;0.76;96.60;99317.03;106545;1275;24375;-58
2023/01/19 08:32:12;;;;;;;13.50;3.70;;;;;;;0.77;96.51;99317.22;106580;1276;25673;-59
2023/01/19 08:34:43;;;;;;;14.40;4.80;;;;;;;0.78;96.30;99319.09;106522;1270;22527;-59
2023/01/19 08:37:14;;;;;;;13.30;3.90;;;;;;;0.80;96.32;99320.91;106490;1263;22566;-59
2023/01/19 08:39:45;;;;;;;14.90;4.00;;;;;;;0.81;96.40;99329.59;106508;1276;25316;-59
2023/01/19 08:42:16;;;;;;;12.30;4.20;;;;;;;0.81;96.02;99332.98;106457;1275;22619;-59
2023/01/19 08:44:47;;;;;;;14.10;5.00;;;;;;;0.81;96.19;99328.80;106526;1275;22539;-59
2023/01/19 08:47:18;;;;;;;16.00;4.60;;;;;;;0.83;96.29;99329.95;106503;1260;22531;-59
2023/01/19 08:49:50;;;;;;;18.70;4.30;;;;;;;0.82;96.32;99329.95;106630;1275;22619;-59
2023/01/19 08:52:21;;;;;;;16.70;4.60;;;;;;;0.82;96.16;99321.95;106596;1269;22579;-59
2023/01/19 08:54:52;;;;;;;15.60;5.30;;;;;;;0.83;96.14;99321.07;106712;1275;22534;-59
2023/01/19 08:57:22;;;;;;;16.50;5.20;;;;;;;0.83;96.25;99324.90;106696;1275;25513;-62
2023/01/19 08:59:53;;;;;;;16.20;5.00;;;;;;;0.84;95.79;99325.28;106496;1276;22550;-61
2023/01/19 09:02:24;;;;;;;15.00;4.10;;;;;;;0.86;95.88;99325.48;106482;1275;24368;-60
2023/01/19 09:04:55;;;;;;;19.50;4.20;;;;;;;0.87;95.75;99333.91;106820;1273;22557;-59
2023/01/19 09:07:27;;;;;;;11.70;3.60;;;;;;;0.88;95.78;99341.34;106511;1275;25339;-60
2023/01/19 09:09:58;;;;;;;11.10;3.30;;;;;;;0.90;95.60;99337.98;106581;1276;22561;-60
2023/01/19 09:12:29;;;;;;;16.20;5.40;;;;;;;0.91;95.54;99339.84;106518;1275;24275;-60
2023/01/19 09:15:00;;;;;;;17.10;5.10;;;;;;;0.94;95.66;99342.76;106547;1260;24281;-60
2023/01/19 09:17:31;;;;;;;17.70;6.00;;;;;;;0.96;95.57;99343.23;106487;1269;24340;-58
2023/01/19 09:20:03;;;;;;;17.70;5.40;;;;;;;0.99;95.60;99350.36;106529;1267;23145;-60
2023/01/19 09:22:34;;;;;;;15.10;5.50;;;;;;;1.01;95.44;99352.59;106593;1273;22540;-58
2023/01/19 09:25:06;;;;;;;17.80;4.50;;;;;;;1.02;95.32;99358.15;106593;1275;22544;-58
2023/01/19 09:27:37;;;;;;;16.30;5.30;;;;;;;1.00;95.03;99364.77;106533;1275;22551;-58
2023/01/19 09:30:10;;;;;;;15.20;4.60;;;;;;;0.98;95.00;99369.31;106490;1262;24270;-57
2023/01/19 09:32:41;;;;;;;16.00;5.30;;;;;;;1.00;95.09;99374.54;106554;1269;25493;-60
2023/01/19 09:35:13;;;;;;;15.10;5.30;;;;;;;1.00;95.01;99378.36;106532;1261;22531;-60
2023/01/19 09:37:47;;;;;;;20.20;7.30;;;;;;;1.03;95.16;99373.27;106538;1260;22549;-61
2023/01/19 09:40:23;;;;;;;19.90;6.80;;;;;;;1.05;95.05;99368.56;106580;1276;25782;-59
2023/01/19 09:42:58;;;;;;;20.80;6.00;;;;;;;1.10;95.02;99370.63;106721;1276;24405;-59
2023/01/19 09:45:36;;;;;;;18.60;5.90;;;;;;;1.12;94.77;99371.89;106796;1273;22533;-59
2023/01/19 09:48:20;;;;;;;20.10;6.80;;;;;;;1.15;94.53;99367.34;106630;1269;23979;-59
2023/01/19 09:50:53;;;;;;;18.50;6.30;;;;;;;1.18;94.62;99368.20;106654;1276;24385;-59
2023/01/19 09:53:34;;;;;;;19.30;6.00;;;;;;;1.21;94.12;99372.35;106551;1269;22536;-59
2023/01/19 09:56:08;;;;;;;19.80;6.10;;;;;;;1.21;94.09;99368.57;106520;1271;24265;-57
2023/01/19 09:58:39;;;;;;;17.40;6.50;;;;;;;1.24;94.19;99357.11;106541;1267;25384;-60
2023/01/19 10:01:20;;;;;;;21.70;7.20;;;;;;;1.27;94.01;99351.98;106567;1260;22555;-60
2023/01/19 10:04:03;;;;;;;20.70;6.10;;;;;;;1.29;93.58;99355.30;106559;1276;24241;-59
2023/01/19 10:06:34;;;;;;;17.10;5.80;;;;;;;1.29;93.35;99349.17;106506;1276;23015;-59
2023/01/19 10:09:11;;;;;;;21.80;7.10;;;;;;;1.29;93.05;99343.75;106511;1273;23025;-59
2023/01/19 10:11:51;;;;;;;17.20;4.40;;;;;;;1.31;92.73;99343.46;106616;1275;22534;-60
2023/01/19 10:14:26;;;;;;;20.80;3.50;;;;;;;1.32;91.74;99337.45;106528;1273;22698;-57
2023/01/19 10:17:04;;;;;;;14.70;3.40;;;;;;;1.30;91.27;99335.86;106620;1268;26277;-58
2023/01/19 10:19:40;;;;;;;12.60;3.80;;;;;;;1.30;91.31;99330.77;106574;1276;24235;-59
2023/01/19 10:22:22;;;;;;;16.50;3.90;;;;;;;1.31;91.04;99329.17;106643;1276;23144;-58
2023/01/19 10:24:56;;;;;;;13.20;3.40;;;;;;;1.31;90.79;99333.02;106643;1276;25709;-61
2023/01/19 10:27:30;;;;;;;21.00;5.10;;;;;;;1.30;90.40;99339.02;106570;1276;22533;-59
2023/01/19 10:30:02;;;;;;;12.00;3.20;;;;;;;1.30;90.33;99337.05;106694;1276;23611;-59
2023/01/19 10:32:35;;;;;;;13.20;3.80;;;;;;;1.31;90.31;99342.19;106611;1276;22539;-60
2023/01/19 10:35:22;;;;;;;14.40;4.00;;;;;;;1.31;90.16;99336.23;106718;1261;25376;-59
2023/01/19 10:37:56;;;;;;;16.80;6.30;;;;;;;1.33;90.70;99341.20;106473;1270;22576;-60
2023/01/19 10:40:34;;;;;;;18.70;4.70;;;;;;;1.35;90.82;99344.29;106623;1275;22534;-58
2023/01/19 10:43:37;;;;;;;18.30;4.60;;;;;;;1.38;90.62;99353.08;106569;1275;24242;-58
2023/01/19 10:46:17;;;;;;;18.30;4.70;;;;;;;1.40;89.90;99353.25;106504;1275;22545;-60
2023/01/19 10:48:50;;;;;;;14.00;3.90;;;;;;;1.40;89.70;99352.13;106864;1275;24329;-77
2023/01/19 10:51:22;;;;;;;19.00;4.80;;;;;;;1.41;89.51;99351.55;107073;1275;22531;-61
2023/01/19 10:54:02;;;;;;;17.50;4.60;;;;;;;1.40;89.35;99351.11;106485;1261;24212;-60
2023/01/19 10:56:36;;;;;;;17.70;5.50;;;;;;;1.42;89.51;99347.36;106520;1269;23025;-64
2023/01/19 10:59:29;;;;;;;19.40;4.80;;;;;;;1.44;89.67;99342.98;106543;1260;24236;-60
2023/01/19 11:02:19;;;;;;;12.60;3.50;;;;;;;1.46;89.18;99339.33;106731;1269;24390;-63
2023/01/19 11:04:52;;;;;;;14.00;3.70;;;;;;;1.47;89.26;99341.79;106732;1261;25526;-61
2023/01/19 11:07:27;;;;;;;16.30;3.10;;;;;;;1.49;88.86;99344.02;106513;1275;24379;-60
2023/01/19 11:10:21;;;;;;;21.30;4.60;;;;;;;1.50;88.28;99346.11;106622;1275;22707;-61
2023/01/19 11:13:01;;;;;;;14.80;3.60;;;;;;;1.50;88.51;99347.52;106551;1275;22537;-60
2023/01/19 11:15:35;;;;;;;16.40;5.00;;;;;;;1.51;88.45;99348.27;106796;1268;24265;-62
2023/01/19 11:18:07;;;;;;;17.60;5.40;;;;;;;1.53;88.48;99344.22;106640;1265;22534;-60
2023/01/19 11:20:51;;;;;;;20.80;5.70;;;;;;;1.54;88.54;99343.54;106619;1275;22681;-60
2023/01/19 11:23:28;;;;;;;18.00;5.40;;;;;;;1.55;88.42;99337.31;106503;1261;22553;-60
2023/01/19 11:26:02;;;;;;;17.10;4.80;;;;;;;1.57;88.57;99335.12;106534;1273;24269;-62
2023/01/19 11:28:35;;;;;;;21.60;6.40;;;;;;;1.60;88.43;99334.15;106552;1268;23754;-60
2023/01/19 11:31:19;;;;;;;18.70;5.20;;;;;;;1.62;88.17;99335.96;106768;1269;22533;-60
2023/01/19 11:33:55;;;;;;;15.70;3.90;;;;;;;1.64;87.91;99338.06;106565;1275;24246;-61
2023/01/19 11:36:28;;;;;;;16.40;4.40;;;;;;;1.66;87.90;99333.02;106770;1270;25421;-62
2023/01/19 11:39:02;;;;;;;16.80;4.50;;;;;;;1.67;87.49;99330.18;106570;1269;22546;-59
2023/01/19 11:41:37;;;;;;;24.60;6.20;;;;;;;1.67;87.62;99328.67;106664;1273;25395;-59
2023/01/19 11:44:18;;;;;;;18.30;5.70;;;;;;;1.68;87.72;99327.95;106628;1260;24414;-61
2023/01/19 11:46:55;;;;;;;20.50;5.40;;;;;;;1.69;87.81;99329.10;106644;1274;25310;-60
2023/01/19 11:49:37;;;;;;;17.90;5.50;;;;;;;1.69;87.11;99326.35;106553;1270;22532;-63
2023/01/19 11:52:22;;;;;;;24.30;6.80;;;;;;;1.69;87.31;99325.64;106565;1269;23999;-60
2023/01/19 11:54:58;;;;;;;19.40;5.10;;;;;;;1.69;86.78;99320.52;106581;1276;22547;-60
2023/01/19 11:57:29;;;;;;;18.10;5.70;;;;;;;1.69;87.03;99317.36;106512;1269;22576;-60
2023/01/19 12:00:03;;;;;;;18.00;5.60;;;;;;;1.71;87.31;99312.46;106528;1275;25375;-61
2023/01/19 12:02:49;;;;;;;17.40;4.20;;;;;;;1.72;87.07;99310.86;106688;1276;25475;-60
2023/01/19 12:05:22;;;;;;;16.50;4.20;;;;;;;1.72;86.03;99306.29;106488;1276;23244;-60
2023/01/19 12:07:54;;;;;;;18.40;5.00;;;;;;;1.71;86.67;99301.52;106516;1260;22554;-60